createdAt,value
2023-03-24T00:01:09.688Z,82.17
2023-03-24T00:03:38.109Z,81.92
2023-03-24T00:06:07.365Z,84.87
2023-03-24T00:08:37.024Z,88.37
2023-03-24T00:11:07.504Z,87.36
2023-03-24T00:13:39.084Z,85.85
2023-03-24T00:16:12.433Z,86.48
2023-03-24T00:18:40.830Z,85.76
2023-03-24T00:21:09.186Z,85.77
2023-03-24T00:23:36.804Z,85.36
2023-03-24T00:26:09.012Z,84.90
2023-03-24T00:28:37.344Z,84.58
2023-03-24T00:31:06.522Z,83.96
2023-03-24T00:33:35.275Z,84.01
2023-03-24T00:36:05.704Z,84.92
2023-03-24T00:38:34.911Z,84.07
2023-03-24T00:41:02.626Z,84.96
2023-03-24T00:43:30.829Z,85.63
2023-03-24T00:46:02.015Z,85.70
2023-03-24T00:48:30.981Z,85.34
2023-03-24T00:51:02.782Z,83.90
2023-03-24T00:53:30.458Z,84.17
2023-03-24T00:55:58.686Z,82.85
2023-03-24T00:58:26.339Z,84.20
2023-03-24T01:00:57.326Z,83.48
2023-03-24T01:03:27.736Z,84.07
2023-03-24T01:06:02.941Z,83.52
2023-03-24T01:08:30.978Z,84.90
2023-03-24T01:11:01.296Z,84.82
2023-03-24T01:13:30.058Z,85.04
2023-03-24T01:15:58.571Z,84.96
2023-03-24T01:18:27.763Z,85.96
2023-03-24T01:20:55.292Z,86.43
2023-03-24T01:23:26.125Z,86.50
2023-03-24T01:25:54.448Z,88.13
2023-03-24T01:28:25.099Z,88.93
2023-03-24T01:30:54.287Z,92.08
2023-03-24T01:33:22.360Z,91.62
2023-03-24T01:35:50.144Z,89.84
2023-03-24T01:38:18.221Z,87.65
2023-03-24T01:40:47.511Z,87.61
2023-03-24T01:43:27.918Z,87.21
2023-03-24T01:46:08.192Z,89.04
2023-03-24T01:48:41.803Z,88.26
2023-03-24T01:51:22.757Z,88.73
2023-03-24T01:54:02.833Z,90.13
2023-03-24T01:56:34.642Z,90.50
2023-03-24T01:59:10.537Z,92.60
2023-03-24T02:01:44.929Z,92.60
2023-03-24T02:04:38.852Z,90.86
2023-03-24T02:07:38.263Z,91.97
2023-03-24T02:10:13.838Z,91.23
2023-03-24T02:12:44.658Z,95.35
2023-03-24T02:15:14.840Z,99.00
2023-03-24T02:17:57.280Z,95.52
2023-03-24T02:20:50.813Z,92.39
2023-03-24T02:23:31.236Z,92.60
2023-03-24T02:26:19.513Z,93.08
2023-03-24T02:29:18.263Z,93.65
2023-03-24T02:32:00.742Z,95.61
2023-03-24T02:35:14.273Z,94.22
2023-03-24T02:37:47.870Z,100.00
2023-03-24T02:40:17.306Z,99.08
2023-03-24T02:43:14.258Z,99.08
2023-03-24T02:46:20.177Z,98.61
2023-03-24T02:49:07.650Z,99.46
2023-03-24T02:51:56.182Z,97.86
2023-03-24T02:54:54.619Z,95.89
2023-03-24T02:57:29.941Z,97.37
2023-03-24T03:00:33.188Z,96.17
2023-03-24T03:03:39.598Z,95.48
2023-03-24T03:06:13.682Z,97.28
2023-03-24T03:08:43.055Z,97.08
2023-03-24T03:11:14.600Z,94.12
2023-03-24T03:13:52.612Z,93.27
2023-03-24T03:16:34.880Z,92.52
2023-03-24T03:19:09.977Z,92.49
2023-03-24T03:21:43.492Z,93.33
2023-03-24T03:24:15.634Z,93.71
2023-03-24T03:26:47.380Z,94.86
2023-03-24T03:29:22.123Z,95.03
2023-03-24T03:31:59.279Z,94.65
2023-03-24T03:34:41.124Z,94.13
2023-03-24T03:37:11.624Z,96.40
2023-03-24T03:39:50.510Z,96.83
2023-03-24T03:42:19.142Z,98.66
2023-03-24T03:44:47.075Z,99.72
2023-03-24T03:47:15.832Z,99.15
2023-03-24T03:49:46.294Z,98.09
2023-03-24T03:52:14.660Z,97.82
2023-03-24T03:54:44.022Z,97.68
2023-03-24T03:57:13.520Z,97.70
2023-03-24T04:00:20.427Z,98.54
2023-03-24T04:03:42.163Z,99.36
2023-03-24T04:06:33.172Z,98.78
2023-03-24T04:09:13.027Z,97.91
2023-03-24T04:11:42.613Z,98.61
2023-03-24T04:14:41.238Z,100.00
2023-03-24T04:18:06.510Z,99.43
2023-03-24T04:21:03.201Z,99.28
2023-03-24T04:23:33.883Z,99.87
2023-03-24T04:26:06.874Z,100.00
2023-03-24T04:28:48.111Z,100.00
2023-03-24T04:31:23.539Z,99.43
2023-03-24T04:34:03.599Z,99.96
2023-03-24T04:37:02.850Z,98.91
2023-03-24T04:39:43.229Z,99.13
2023-03-24T04:42:28.534Z,100.00
2023-03-24T04:44:57.725Z,100.00
2023-03-24T04:47:57.042Z,100.00
2023-03-24T04:50:40.548Z,100.00
2023-03-24T04:53:14.102Z,100.00
2023-03-24T04:55:51.175Z,100.00
2023-03-24T04:58:37.274Z,100.00
2023-03-24T05:01:06.131Z,100.00
2023-03-24T05:03:39.936Z,100.00
2023-03-24T05:06:08.446Z,100.00
2023-03-24T05:08:36.588Z,100.00
2023-03-24T05:11:04.324Z,100.00
2023-03-24T05:13:33.493Z,100.00
2023-03-24T05:16:03.102Z,100.00
2023-03-24T05:18:41.006Z,100.00
2023-03-24T05:21:09.332Z,100.00
2023-03-24T05:23:37.353Z,100.00
2023-03-24T05:26:05.953Z,100.00
2023-03-24T05:28:44.350Z,100.00
2023-03-24T05:31:13.412Z,100.00
2023-03-24T05:33:49.174Z,100.00
2023-03-24T05:36:19.939Z,100.00
2023-03-24T05:38:54.844Z,100.00
2023-03-24T05:41:24.882Z,100.00
2023-03-24T05:44:08.406Z,100.00
2023-03-24T05:46:36.070Z,100.00
2023-03-24T05:49:04.594Z,100.00
2023-03-24T05:51:35.445Z,98.54
2023-03-24T05:54:06.362Z,97.62
2023-03-24T05:56:40.686Z,96.50
2023-03-24T05:59:27.295Z,95.67
2023-03-24T06:02:30.296Z,94.03
2023-03-24T06:05:08.323Z,92.21
2023-03-24T06:07:38.421Z,91.49
2023-03-24T06:10:10.070Z,91.23
2023-03-24T06:12:44.978Z,92.14
2023-03-24T06:15:17.476Z,89.49
2023-03-24T06:17:47.902Z,89.03
2023-03-24T06:20:26.044Z,89.62
2023-03-24T06:23:07.284Z,90.36
2023-03-24T06:25:55.673Z,88.82
2023-03-24T06:28:26.336Z,89.32
2023-03-24T06:30:58.905Z,91.13
2023-03-24T06:33:32.828Z,90.36
2023-03-24T06:36:01.908Z,90.70
2023-03-24T06:38:31.128Z,92.51
2023-03-24T06:41:03.982Z,91.88
2023-03-24T06:43:33.032Z,90.81
2023-03-24T06:46:01.072Z,91.39
2023-03-24T06:48:34.633Z,91.74
2023-03-24T06:51:07.602Z,89.56
2023-03-24T06:53:35.626Z,89.91
2023-03-24T06:56:03.802Z,93.25
2023-03-24T06:58:38.789Z,88.94
2023-03-24T07:01:08.726Z,88.52
2023-03-24T07:03:41.949Z,87.35
2023-03-24T07:06:29.847Z,86.11
2023-03-24T07:09:03.283Z,87.96
2023-03-24T07:11:31.782Z,84.94
2023-03-24T07:14:01.660Z,82.22
2023-03-24T07:16:31.283Z,80.15
2023-03-24T07:19:07.852Z,80.43
2023-03-24T07:21:38.198Z,80.25
2023-03-24T07:24:06.550Z,79.88
2023-03-24T07:26:42.689Z,77.38
2023-03-24T07:29:19.778Z,80.99
2023-03-24T07:32:01.195Z,79.66
2023-03-24T07:34:29.257Z,74.20
2023-03-24T07:36:56.843Z,69.78
2023-03-24T07:39:24.531Z,69.68
2023-03-24T07:41:52.054Z,67.90
2023-03-24T07:44:29.695Z,69.00
2023-03-24T07:47:01.381Z,72.36
2023-03-24T07:49:33.472Z,75.99
2023-03-24T07:52:07.126Z,75.88
2023-03-24T07:54:48.861Z,76.24
2023-03-24T07:57:43.850Z,78.39
2023-03-24T08:00:42.974Z,80.98
2023-03-24T08:03:28.140Z,85.93
2023-03-24T08:06:19.382Z,84.30
2023-03-24T08:08:56.904Z,87.30
2023-03-24T08:11:25.798Z,83.12
2023-03-24T08:13:53.388Z,84.33
2023-03-24T08:16:24.856Z,87.91
2023-03-24T08:18:53.312Z,87.01
2023-03-24T08:21:28.868Z,85.35
2023-03-24T08:37:28.101Z,79.72
2023-03-24T08:39:58.988Z,78.13
2023-03-24T08:42:26.778Z,76.18
2023-03-24T08:54:03.750Z,79.42
2023-03-24T08:56:31.447Z,80.95
2023-03-24T08:58:59.259Z,79.87
2023-03-24T09:01:27.555Z,78.21
2023-03-24T09:03:56.461Z,73.96
2023-03-24T09:15:34.920Z,63.75
2023-03-24T09:18:03.123Z,61.22
2023-03-24T09:20:31.155Z,63.48
2023-03-24T09:36:44.310Z,70.83
2023-03-24T09:44:10.580Z,70.18
2023-03-24T09:46:51.358Z,70.99
2023-03-24T09:58:31.514Z,69.52
2023-03-24T10:00:59.150Z,70.40
2023-03-24T10:03:28.308Z,71.68
2023-03-24T10:15:37.749Z,67.66
2023-03-24T10:18:15.357Z,66.11
2023-03-24T10:25:23.026Z,60.27
2023-03-24T10:36:58.494Z,55.75
2023-03-24T10:40:19.432Z,54.13
2023-03-24T10:47:22.660Z,53.13
2023-03-24T10:49:57.108Z,54.81
2023-03-24T10:52:25.108Z,52.41
2023-03-24T11:04:07.870Z,54.21
2023-03-24T11:06:40.646Z,53.46
2023-03-24T11:09:21.332Z,54.39
2023-03-24T11:11:50.904Z,50.71
2023-03-24T11:14:27.468Z,51.48
2023-03-24T11:17:12.882Z,53.81
2023-03-24T11:19:49.975Z,56.26
2023-03-24T11:36:08.769Z,54.89
2023-03-24T11:47:42.841Z,52.97
2023-03-24T11:50:10.152Z,52.99
2023-03-24T11:52:55.399Z,53.30
2023-03-24T12:09:17.052Z,53.61
2023-03-24T12:21:05.073Z,52.56
2023-03-24T12:23:38.298Z,51.87
2023-03-24T12:26:26.042Z,52.44
2023-03-24T12:28:59.260Z,51.50
2023-03-24T12:31:28.897Z,51.44
2023-03-24T12:34:05.092Z,50.91
2023-03-24T12:36:57.540Z,52.56
2023-03-24T12:53:08.127Z,54.16
2023-03-24T13:04:47.896Z,51.57
2023-03-24T13:07:21.604Z,51.95
2023-03-24T13:10:14.910Z,51.75
2023-03-24T13:12:51.031Z,52.69
2023-03-24T13:15:24.825Z,52.19
2023-03-24T13:18:09.146Z,52.29
2023-03-24T13:20:54.963Z,54.13
2023-03-24T13:32:24.116Z,52.44
2023-03-24T13:35:25.576Z,53.48
2023-03-24T13:38:24.088Z,51.12
2023-03-24T13:40:54.198Z,52.12
2023-03-24T13:43:24.878Z,51.08
2023-03-24T13:46:00.253Z,48.93
2023-03-24T13:48:32.290Z,49.92
2023-03-24T13:51:02.056Z,51.58
2023-03-24T13:53:34.123Z,50.97
2023-03-24T14:05:22.489Z,51.74
2023-03-24T14:21:34.584Z,52.29
2023-03-24T14:38:01.648Z,50.56
2023-03-24T14:43:42.041Z,53.09
2023-03-24T14:46:23.935Z,52.29
2023-03-24T14:49:04.159Z,51.49
2023-03-24T14:51:39.344Z,50.67
2023-03-24T15:00:57.952Z,50.60
2023-03-24T15:07:29.984Z,50.58
2023-03-24T15:10:23.023Z,48.69
2023-03-24T15:20:48.492Z,51.54
2023-03-24T15:29:43.846Z,53.67
2023-03-24T15:35:59.562Z,51.82
2023-03-24T15:39:07.175Z,53.73
2023-03-24T15:42:25.885Z,51.95
2023-03-24T15:44:54.724Z,51.46
2023-03-24T15:47:29.510Z,52.02
2023-03-24T15:49:59.350Z,52.30
2023-03-24T15:52:37.767Z,52.07
2023-03-24T15:55:24.231Z,52.56
2023-03-24T15:57:55.635Z,52.71
2023-03-24T16:00:40.443Z,53.17
2023-03-24T16:03:15.391Z,52.79
2023-03-24T16:05:48.488Z,53.30
2023-03-24T16:08:35.871Z,54.76
2023-03-24T16:11:08.076Z,54.07
2023-03-24T16:13:35.892Z,52.92
2023-03-24T16:16:15.203Z,53.59
2023-03-24T16:18:45.338Z,53.61
2023-03-24T16:21:28.073Z,53.46
2023-03-24T16:23:57.993Z,53.83
2023-03-24T16:26:28.959Z,56.14
2023-03-24T16:29:03.869Z,56.36
2023-03-24T16:31:35.110Z,55.37
2023-03-24T16:34:02.861Z,55.54
2023-03-24T16:36:30.438Z,56.20
2023-03-24T16:39:01.714Z,56.38
2023-03-24T16:41:30.451Z,56.12
2023-03-24T16:43:57.986Z,57.70
2023-03-24T16:46:28.221Z,56.78
2023-03-24T16:48:56.076Z,57.22
2023-03-24T16:51:23.954Z,57.88
2023-03-24T16:53:51.459Z,57.11
2023-03-24T16:56:20.994Z,56.49
2023-03-24T16:58:49.546Z,57.16
2023-03-24T17:01:27.001Z,56.93
2023-03-24T17:03:56.114Z,56.70
2023-03-24T17:06:24.966Z,56.98
2023-03-24T17:08:52.565Z,58.11
2023-03-24T17:11:27.558Z,58.79
2023-03-24T17:14:01.982Z,58.92
2023-03-24T17:16:29.699Z,58.60
2023-03-24T17:19:03.816Z,58.80
2023-03-24T17:21:34.534Z,59.33
2023-03-24T17:24:02.948Z,59.48
2023-03-24T17:26:31.871Z,60.59
2023-03-24T17:28:59.533Z,60.43
2023-03-24T17:31:27.064Z,61.70
2023-03-24T17:33:54.822Z,60.81
2023-03-24T17:36:22.367Z,61.07
2023-03-24T17:38:49.754Z,59.42
2023-03-24T17:41:17.324Z,59.20
2023-03-24T17:43:46.567Z,59.23
2023-03-24T17:46:14.348Z,59.65
2023-03-24T17:48:43.524Z,59.90
2023-03-24T17:51:12.534Z,59.62
2023-03-24T17:53:40.106Z,59.30
2023-03-24T17:56:07.885Z,59.54
2023-03-24T17:58:35.855Z,58.59
2023-03-24T18:01:07.708Z,58.74
2023-03-24T18:03:38.358Z,59.69
2023-03-24T18:06:08.091Z,57.98
2023-03-24T18:08:36.731Z,59.25
2023-03-24T18:11:07.032Z,58.91
2023-03-24T18:13:34.918Z,58.44
2023-03-24T18:16:13.217Z,59.15
2023-03-24T18:18:47.963Z,60.42
2023-03-24T18:21:15.535Z,61.14
2023-03-24T18:23:43.145Z,61.36
2023-03-24T18:26:10.822Z,62.38
2023-03-24T18:28:39.149Z,61.76
2023-03-24T18:31:10.478Z,63.13
2023-03-24T18:33:38.379Z,63.49
2023-03-24T18:36:06.277Z,62.40
2023-03-24T18:38:33.939Z,63.54
2023-03-24T18:41:08.191Z,63.04
2023-03-24T18:43:41.135Z,63.38
2023-03-24T18:49:18.441Z,63.45
2023-03-24T18:51:47.050Z,63.54
2023-03-24T18:54:16.060Z,64.57
2023-03-24T18:56:46.902Z,63.88
2023-03-24T18:59:17.217Z,65.00
2023-03-24T19:01:48.750Z,64.69
2023-03-24T19:04:17.719Z,64.68
2023-03-24T19:06:50.549Z,64.49
2023-03-24T19:09:22.885Z,63.81
2023-03-24T19:11:51.592Z,63.92
2023-03-24T19:18:30.446Z,64.42
2023-03-24T19:20:58.896Z,64.58
2023-03-24T19:23:26.809Z,64.32
2023-03-24T19:26:03.237Z,64.82
2023-03-24T19:28:44.192Z,65.10
2023-03-24T19:31:17.116Z,65.47
2023-03-24T19:33:48.926Z,65.23
2023-03-24T19:36:18.378Z,65.91
2023-03-24T19:38:46.092Z,66.01
2023-03-24T19:41:15.285Z,66.59
2023-03-24T19:43:43.110Z,66.65
2023-03-24T19:46:11.194Z,65.77
2023-03-24T19:48:39.020Z,65.74
2023-03-24T19:51:07.711Z,66.70
2023-03-24T19:53:35.613Z,66.95
2023-03-24T19:56:29.787Z,67.74
2023-03-24T19:59:04.429Z,67.89
2023-03-24T20:01:46.588Z,68.13
2023-03-24T20:04:21.367Z,67.51
2023-03-24T20:06:48.962Z,67.85
2023-03-24T20:09:16.781Z,68.59
2023-03-24T20:11:44.356Z,67.74
2023-03-24T20:14:23.359Z,67.64
2023-03-24T20:23:00.511Z,70.41
2023-03-24T20:25:32.075Z,70.96
2023-03-24T20:28:04.481Z,71.40
2023-03-24T20:31:16.233Z,71.14
2023-03-24T20:33:46.764Z,72.46
2023-03-24T20:36:15.847Z,71.91
2023-03-24T20:38:46.422Z,72.95
2023-03-24T20:41:35.854Z,72.08
2023-03-24T20:44:04.145Z,72.21
2023-03-24T20:47:01.489Z,71.26
2023-03-24T20:50:07.854Z,71.80
2023-03-24T20:53:02.311Z,72.74
2023-03-24T20:56:02.170Z,74.00
2023-03-24T20:58:32.811Z,74.59
2023-03-24T21:01:09.163Z,75.14
2023-03-24T21:03:39.024Z,73.20
2023-03-24T21:06:19.564Z,72.53
2023-03-24T21:12:34.715Z,74.01
2023-03-24T21:15:27.781Z,74.20
2023-03-24T21:18:06.860Z,74.18
2023-03-24T21:20:57.154Z,73.32
2023-03-24T21:23:25.646Z,73.71
2023-03-24T21:25:53.371Z,73.16
2023-03-24T21:28:21.155Z,73.65
2023-03-24T21:30:48.786Z,73.81
2023-03-24T21:33:16.802Z,74.17
2023-03-24T21:35:44.319Z,73.68
2023-03-24T21:38:13.131Z,75.52
2023-03-24T21:40:40.841Z,74.24
2023-03-24T21:43:10.844Z,74.18
2023-03-24T21:45:38.501Z,74.85
2023-03-24T21:48:07.240Z,74.88
2023-03-24T21:50:40.287Z,73.82
2023-03-24T21:53:15.397Z,74.08
2023-03-24T21:55:53.473Z,75.20
2023-03-24T21:58:23.887Z,76.17
2023-03-24T22:07:30.388Z,73.88
2023-03-24T22:11:22.611Z,74.33
2023-03-24T22:15:15.749Z,73.99
2023-03-24T22:23:05.839Z,71.97
2023-03-24T22:26:01.561Z,72.80
2023-03-24T22:28:29.667Z,73.18
2023-03-24T22:34:52.446Z,71.79
2023-03-24T22:37:27.548Z,72.38
2023-03-24T22:39:55.876Z,72.27
2023-03-24T22:42:28.875Z,73.03
2023-03-24T22:45:24.189Z,72.23
2023-03-24T22:48:29.130Z,71.95
2023-03-24T22:51:19.449Z,71.78
2023-03-24T22:55:09.097Z,71.83
2023-03-24T23:17:40.694Z,72.90
2023-03-24T23:20:33.215Z,72.23
2023-03-24T23:23:01.498Z,73.16
2023-03-24T23:25:32.983Z,72.53
2023-03-24T23:28:14.654Z,73.86
2023-03-24T23:30:57.792Z,73.16
2023-03-24T23:33:48.012Z,74.12
2023-03-24T23:36:36.486Z,74.34
2023-03-24T23:39:38.377Z,74.96
2023-03-24T23:42:36.288Z,75.37
2023-03-24T23:45:24.563Z,74.60
2023-03-24T23:48:00.773Z,74.36
2023-03-24T23:50:53.594Z,74.85
2023-03-24T23:53:36.229Z,74.77
2023-03-24T23:56:21.795Z,74.03
2023-03-24T23:58:49.677Z,74.02
